createdAt,value
2019-01-13T00:00:17.262Z,22.9
2019-01-13T00:01:19.706Z,22.8
2019-01-13T00:02:22.206Z,22.8
2019-01-13T00:03:24.415Z,22.8
2019-01-13T00:04:26.584Z,22.8
2019-01-13T00:05:28.761Z,22.9
2019-01-13T00:06:30.627Z,22.9
2019-01-13T00:07:32.795Z,22.9
2019-01-13T00:08:35.239Z,22.9
2019-01-13T00:09:37.662Z,22.9
2019-01-13T00:10:40.087Z,22.9
2019-01-13T00:11:42.246Z,22.9
2019-01-13T00:12:44.377Z,22.9
2019-01-13T00:13:46.813Z,22.9
2019-01-13T00:14:48.421Z,22.9
2019-01-13T00:15:50.863Z,23
2019-01-13T00:16:53.024Z,23
2019-01-13T00:17:55.456Z,23
2019-01-13T00:18:57.599Z,23
2019-01-13T00:20:00.034Z,23
2019-01-13T00:21:02.463Z,23
2019-01-13T00:22:04.597Z,23
2019-01-13T00:23:06.756Z,23
2019-01-13T00:24:09.230Z,23
2019-01-13T00:25:11.654Z,23
2019-01-13T00:26:13.286Z,23
2019-01-13T00:27:15.706Z,23
2019-01-13T00:28:18.143Z,23
2019-01-13T00:29:20.574Z,23
2019-01-13T00:30:23.004Z,23
2019-01-13T00:31:25.433Z,23
2019-01-13T00:32:27.861Z,23
2019-01-13T00:33:30.297Z,23
2019-01-13T00:34:32.726Z,23
2019-01-13T00:35:35.163Z,23.1
2019-01-13T00:36:37.594Z,23.1
2019-01-13T00:37:40.073Z,23.1
2019-01-13T00:38:42.492Z,23.1
2019-01-13T00:39:44.398Z,23.1
2019-01-13T00:40:45.741Z,23.2
2019-01-13T00:41:48.170Z,23.2
2019-01-13T00:42:50.335Z,23.2
2019-01-13T00:43:52.484Z,23.2
2019-01-13T00:44:54.667Z,23.2
2019-01-13T00:45:57.091Z,23.2
2019-01-13T00:46:59.255Z,23.2
2019-01-13T00:48:01.433Z,23.2
2019-01-13T00:49:03.575Z,23.2
2019-01-13T00:50:05.995Z,23.2
2019-01-13T00:51:08.431Z,23.2
2019-01-13T00:52:10.865Z,23.2
2019-01-13T00:53:13.284Z,23.2
2019-01-13T00:54:15.713Z,23.1
2019-01-13T00:55:17.871Z,23.2
2019-01-13T00:56:20.044Z,23.2
2019-01-13T00:57:21.940Z,23.2
2019-01-13T00:58:24.374Z,23.2
2019-01-13T00:59:26.501Z,23.2
2019-01-13T01:00:28.923Z,23.2
2019-01-13T01:01:31.344Z,23.3
2019-01-13T01:02:33.763Z,23.3
2019-01-13T01:03:35.653Z,23.3
2019-01-13T01:04:38.093Z,23.3
2019-01-13T01:05:40.243Z,23.3
2019-01-13T01:06:42.685Z,23.4
2019-01-13T01:07:45.115Z,23.4
2019-01-13T01:08:49.034Z,23.4
2019-01-13T01:09:51.454Z,23.4
2019-01-13T01:10:53.342Z,23.4
2019-01-13T01:11:55.774Z,23.4
2019-01-13T01:12:58.204Z,23.5
2019-01-13T01:14:00.354Z,23.5
2019-01-13T01:15:02.769Z,23.5
2019-01-13T01:16:05.191Z,23.5
2019-01-13T01:17:07.625Z,23.5
2019-01-13T01:18:10.041Z,23.5
2019-01-13T01:19:12.484Z,23.5
2019-01-13T01:20:14.357Z,23.5
2019-01-13T01:21:16.775Z,23.5
2019-01-13T01:22:18.921Z,23.6
2019-01-13T01:23:21.058Z,23.6
2019-01-13T01:24:22.936Z,23.6
2019-01-13T01:25:25.093Z,23.6
2019-01-13T01:26:27.523Z,23.6
2019-01-13T01:27:29.431Z,23.6
2019-01-13T01:28:31.851Z,23.6
2019-01-13T01:29:34.326Z,23.6
2019-01-13T01:30:36.753Z,23.6
2019-01-13T01:31:39.166Z,23.6
2019-01-13T01:32:41.607Z,23.7
2019-01-13T01:33:44.066Z,23.7
2019-01-13T01:34:46.236Z,23.7
2019-01-13T01:35:48.400Z,23.7
2019-01-13T01:36:50.855Z,23.7
2019-01-13T01:37:52.488Z,23.7
2019-01-13T01:38:54.641Z,23.7
2019-01-13T01:39:57.065Z,23.7
2019-01-13T01:40:59.495Z,23.7
2019-01-13T01:42:01.933Z,23.7
2019-01-13T01:43:03.814Z,23.7
2019-01-13T01:44:06.234Z,23.7
2019-01-13T01:45:08.655Z,23.8
2019-01-13T01:46:10.794Z,23.8
2019-01-13T01:47:13.219Z,23.8
2019-01-13T01:48:15.655Z,23.8
2019-01-13T01:49:18.084Z,23.8
2019-01-13T01:50:20.255Z,23.8
2019-01-13T01:51:22.395Z,23.8
2019-01-13T01:52:24.828Z,23.8
2019-01-13T01:53:27.251Z,23.8
2019-01-13T01:54:29.397Z,23.8
2019-01-13T01:55:31.824Z,23.8
2019-01-13T01:56:33.977Z,23.8
2019-01-13T01:57:36.391Z,23.8
2019-01-13T01:58:38.813Z,23.8
2019-01-13T01:59:41.243Z,23.8
2019-01-13T02:00:42.826Z,23.8
2019-01-13T02:01:44.974Z,23.8
2019-01-13T02:02:47.415Z,23.9
2019-01-13T02:03:49.299Z,23.8
2019-01-13T02:04:51.727Z,23.9
2019-01-13T02:05:54.399Z,23.9
2019-01-13T02:06:56.846Z,23.9
2019-01-13T02:07:59.307Z,23.9
2019-01-13T02:09:01.775Z,23.9
2019-01-13T02:10:04.241Z,23.9
2019-01-13T02:11:06.379Z,23.9
2019-01-13T02:12:08.792Z,23.9
2019-01-13T02:13:10.944Z,23.9
2019-01-13T02:14:13.091Z,23.9
2019-01-13T02:15:15.519Z,23.9
2019-01-13T02:16:17.676Z,23.9
2019-01-13T02:17:20.115Z,23.9
2019-01-13T02:18:22.005Z,24
2019-01-13T02:19:23.875Z,23.9
2019-01-13T02:20:26.033Z,23.9
2019-01-13T02:21:28.453Z,24
2019-01-13T02:22:30.613Z,24
2019-01-13T02:23:33.045Z,24
2019-01-13T02:24:34.956Z,24
2019-01-13T02:25:37.391Z,24
2019-01-13T02:26:39.826Z,24
2019-01-13T02:27:41.679Z,24
2019-01-13T02:28:44.107Z,24
2019-01-13T02:29:46.272Z,24
2019-01-13T02:30:50.485Z,24
2019-01-13T02:31:52.678Z,24
2019-01-13T02:32:54.835Z,24
2019-01-13T02:33:57.281Z,24
2019-01-13T02:34:59.707Z,24
2019-01-13T02:36:02.144Z,24
2019-01-13T02:37:04.300Z,24
2019-01-13T02:38:06.455Z,24
2019-01-13T02:39:08.911Z,24
2019-01-13T02:40:10.776Z,24
2019-01-13T02:41:13.204Z,24.1
2019-01-13T02:42:15.364Z,24.1
2019-01-13T02:43:17.798Z,24.1
2019-01-13T02:44:19.950Z,24.1
2019-01-13T02:45:21.841Z,24.1
2019-01-13T02:46:23.979Z,24.1
2019-01-13T02:47:26.405Z,24.1
2019-01-13T02:48:28.843Z,24.1
2019-01-13T02:49:31.275Z,24.1
2019-01-13T02:50:33.705Z,24.1
2019-01-13T02:51:35.841Z,24.1
2019-01-13T02:52:37.977Z,24.1
2019-01-13T02:53:40.406Z,24.1
2019-01-13T02:54:42.823Z,24.1
2019-01-13T02:55:44.992Z,24.2
2019-01-13T02:56:47.145Z,24.2
2019-01-13T02:57:49.575Z,24.1
2019-01-13T02:58:51.732Z,24.2
2019-01-13T02:59:54.153Z,24.2
2019-01-13T03:00:58.055Z,24.2
2019-01-13T03:02:00.229Z,24.2
2019-01-13T03:03:02.221Z,24.2
2019-01-13T03:04:04.649Z,24.2
2019-01-13T03:05:06.798Z,24.2
2019-01-13T03:06:09.226Z,24.2
2019-01-13T03:07:11.364Z,24.2
2019-01-13T03:08:13.284Z,24.2
2019-01-13T03:09:15.140Z,24.2
2019-01-13T03:10:17.573Z,24.2
2019-01-13T03:11:19.996Z,24.2
2019-01-13T03:12:22.432Z,24.2
2019-01-13T03:13:24.602Z,24.2
2019-01-13T03:14:27.030Z,24.2
2019-01-13T03:15:29.456Z,24.2
2019-01-13T03:16:31.884Z,24.2
2019-01-13T03:17:34.313Z,24.2
2019-01-13T03:18:36.193Z,24.2
2019-01-13T03:19:38.369Z,24.2
2019-01-13T03:20:40.524Z,24.2
2019-01-13T03:21:42.664Z,24.3
2019-01-13T03:22:44.815Z,24.3
2019-01-13T03:23:46.693Z,24.3
2019-01-13T03:24:48.851Z,24.3
2019-01-13T03:25:51.002Z,24.3
2019-01-13T03:26:52.946Z,24.3
2019-01-13T03:27:55.380Z,24.3
2019-01-13T03:28:57.526Z,24.3
2019-01-13T03:29:59.692Z,24.3
2019-01-13T03:32:07.045Z,24.3
2019-01-13T03:33:09.493Z,24.3
2019-01-13T03:34:11.935Z,24.3
2019-01-13T03:35:14.354Z,24.3
2019-01-13T03:36:16.795Z,24.3
2019-01-13T03:37:18.982Z,24.3
2019-01-13T03:38:21.156Z,24.3
2019-01-13T03:39:23.589Z,24.3
2019-01-13T03:40:26.018Z,24.3
2019-01-13T03:41:28.167Z,24.3
2019-01-13T03:42:30.596Z,24.3
2019-01-13T03:43:32.741Z,24.3
2019-01-13T03:44:35.181Z,24.3
2019-01-13T03:45:37.606Z,24.3
2019-01-13T03:46:40.017Z,24.3
2019-01-13T03:47:42.504Z,24.4
2019-01-13T03:48:44.936Z,24.3
2019-01-13T03:49:46.804Z,24.3
2019-01-13T03:50:49.233Z,24.4
2019-01-13T03:51:51.666Z,24.4
2019-01-13T03:52:54.534Z,24.4
2019-01-13T03:53:56.694Z,24.4
2019-01-13T03:54:59.126Z,24.4
2019-01-13T03:56:01.692Z,24.4
2019-01-13T03:57:04.135Z,24.4
2019-01-13T03:58:06.557Z,24.4
2019-01-13T03:59:08.987Z,24.4
2019-01-13T04:00:11.472Z,24.4
2019-01-13T04:02:18.600Z,24.4
2019-01-13T04:03:20.753Z,24.4
2019-01-13T04:04:22.884Z,24.4
2019-01-13T04:05:24.765Z,24.4
2019-01-13T04:06:27.191Z,24.4
2019-01-13T04:07:29.617Z,24.3
2019-01-13T04:08:31.521Z,24.3
2019-01-13T04:09:33.959Z,24.3
2019-01-13T04:10:36.369Z,24.3
2019-01-13T04:11:38.799Z,24.3
2019-01-13T04:12:41.230Z,24.2
2019-01-13T04:13:43.378Z,24.2
2019-01-13T04:14:45.526Z,24.2
2019-01-13T04:15:47.955Z,24.2
2019-01-13T04:16:50.107Z,24.1
2019-01-13T04:17:52.281Z,24.1
2019-01-13T04:18:54.172Z,24.1
2019-01-13T04:19:56.330Z,24.1
2019-01-13T04:20:58.537Z,24.1
2019-01-13T04:22:00.674Z,24
2019-01-13T04:23:03.096Z,24
2019-01-13T04:24:05.236Z,24
2019-01-13T04:25:07.687Z,24
2019-01-13T04:26:09.877Z,24
2019-01-13T04:27:12.021Z,24
2019-01-13T04:28:14.181Z,24
2019-01-13T04:29:16.622Z,24
2019-01-13T04:30:19.044Z,23.9
2019-01-13T04:32:26.192Z,23.9
2019-01-13T04:33:28.614Z,23.9
2019-01-13T04:34:31.042Z,23.9
2019-01-13T04:35:33.193Z,23.9
2019-01-13T04:36:35.350Z,23.9
2019-01-13T04:37:37.836Z,23.9
2019-01-13T04:38:39.987Z,23.8
2019-01-13T04:39:42.416Z,23.8
2019-01-13T04:40:44.842Z,23.8
2019-01-13T04:41:47.318Z,23.8
2019-01-13T04:42:49.834Z,23.8
2019-01-13T04:43:52.265Z,23.8
2019-01-13T04:44:54.700Z,23.8
2019-01-13T04:45:56.872Z,23.8
2019-01-13T04:46:59.034Z,23.8
2019-01-13T04:48:01.208Z,23.8
2019-01-13T04:49:03.346Z,23.8
2019-01-13T04:50:05.773Z,23.8
2019-01-13T04:51:08.204Z,23.8
2019-01-13T04:52:10.644Z,23.8
2019-01-13T04:53:13.074Z,23.8
2019-01-13T04:54:15.495Z,23.8
2019-01-13T04:55:17.959Z,23.8
2019-01-13T04:56:20.122Z,23.8
2019-01-13T04:57:22.529Z,23.8
2019-01-13T04:58:24.424Z,23.8
2019-01-13T04:59:26.590Z,23.8
2019-01-13T05:00:28.480Z,23.8
2019-01-13T05:02:35.609Z,23.8
2019-01-13T05:03:37.474Z,23.8
2019-01-13T05:04:39.908Z,23.8
2019-01-13T05:05:42.331Z,23.8
2019-01-13T05:06:44.489Z,23.8
2019-01-13T05:07:46.678Z,23.8
2019-01-13T05:08:49.098Z,23.8
2019-01-13T05:09:50.997Z,23.8
2019-01-13T05:10:53.420Z,23.8
2019-01-13T05:11:55.852Z,23.8
2019-01-13T05:12:58.278Z,23.8
2019-01-13T05:14:01.315Z,23.8
2019-01-13T05:15:03.740Z,23.8
2019-01-13T05:16:06.176Z,23.8
2019-01-13T05:17:08.690Z,23.8
2019-01-13T05:18:11.124Z,23.8
2019-01-13T05:19:13.551Z,23.8
2019-01-13T05:20:15.985Z,23.8
2019-01-13T05:21:18.177Z,23.8
2019-01-13T05:22:20.591Z,23.8
2019-01-13T05:23:22.468Z,23.8
2019-01-13T05:24:24.331Z,23.8
2019-01-13T05:25:26.495Z,23.8
2019-01-13T05:26:28.649Z,23.8
2019-01-13T05:27:31.072Z,23.8
2019-01-13T05:28:32.654Z,23.8
2019-01-13T05:29:34.781Z,23.8
2019-01-13T05:30:37.200Z,23.8
2019-01-13T05:32:44.064Z,23.8
2019-01-13T05:33:46.221Z,23.7
2019-01-13T05:34:48.640Z,23.7
2019-01-13T05:35:50.797Z,23.8
2019-01-13T05:36:53.216Z,23.8
2019-01-13T05:37:55.362Z,23.8
2019-01-13T05:38:57.794Z,23.8
2019-01-13T05:40:00.227Z,23.7
2019-01-13T05:41:02.654Z,23.7
2019-01-13T05:42:05.082Z,23.7
2019-01-13T05:43:07.537Z,23.7
2019-01-13T05:44:09.659Z,23.7
2019-01-13T05:45:11.275Z,23.7
2019-01-13T05:46:13.697Z,23.7
2019-01-13T05:47:16.130Z,23.7
2019-01-13T05:48:18.286Z,23.7
2019-01-13T05:49:20.711Z,23.7
2019-01-13T05:50:23.134Z,23.7
2019-01-13T05:51:25.565Z,23.7
2019-01-13T05:52:28.007Z,23.7
2019-01-13T05:53:30.166Z,23.7
2019-01-13T05:54:32.324Z,23.7
2019-01-13T05:55:34.214Z,23.7
2019-01-13T05:56:36.362Z,23.7
2019-01-13T05:57:38.786Z,23.7
2019-01-13T05:58:40.658Z,23.7
2019-01-13T05:59:42.852Z,23.7
2019-01-13T06:00:45.283Z,23.7
2019-01-13T06:02:52.693Z,23.7
2019-01-13T06:03:54.852Z,23.7
2019-01-13T06:04:57.276Z,23.7
2019-01-13T06:05:59.421Z,23.7
2019-01-13T06:07:01.835Z,23.7
2019-01-13T06:08:03.995Z,23.7
2019-01-13T06:09:06.422Z,23.7
2019-01-13T06:10:08.552Z,23.7
2019-01-13T06:11:10.976Z,23.7
2019-01-13T06:12:13.426Z,23.7
2019-01-13T06:13:15.849Z,23.7
2019-01-13T06:14:18.276Z,23.7
2019-01-13T06:15:20.425Z,23.7
2019-01-13T06:16:22.867Z,23.7
2019-01-13T06:17:25.292Z,23.7
2019-01-13T06:18:27.434Z,23.7
2019-01-13T06:19:29.595Z,23.7
2019-01-13T06:20:32.024Z,23.7
2019-01-13T06:21:34.483Z,23.7
2019-01-13T06:22:36.905Z,23.7
2019-01-13T06:23:39.322Z,23.7
2019-01-13T06:24:41.500Z,23.7
2019-01-13T06:25:43.666Z,23.7
2019-01-13T06:26:46.077Z,23.7
2019-01-13T06:27:48.575Z,23.7
2019-01-13T06:28:50.734Z,23.7
2019-01-13T06:29:52.333Z,23.7
2019-01-13T06:30:54.484Z,23.7
2019-01-13T06:31:57.558Z,23.7
2019-01-13T06:32:59.981Z,23.7
2019-01-13T06:34:02.187Z,23.7
2019-01-13T06:35:04.625Z,23.7
2019-01-13T06:36:07.052Z,23.7
2019-01-13T06:37:09.206Z,23.7
2019-01-13T06:38:11.633Z,23.7
2019-01-13T06:39:14.064Z,23.6
2019-01-13T06:40:16.514Z,23.7
2019-01-13T06:41:18.682Z,23.7
2019-01-13T06:42:20.295Z,23.7
2019-01-13T06:43:22.722Z,23.7
2019-01-13T06:44:25.147Z,23.7
2019-01-13T06:45:27.291Z,23.7
2019-01-13T06:46:29.435Z,23.7
2019-01-13T06:47:31.869Z,23.7
2019-01-13T06:48:33.744Z,23.7
2019-01-13T06:49:35.886Z,23.7
2019-01-13T06:50:38.305Z,23.7
2019-01-13T06:51:40.732Z,23.7
2019-01-13T06:52:42.886Z,23.7
2019-01-13T06:53:45.071Z,23.7
2019-01-13T06:54:47.235Z,23.7
2019-01-13T06:55:49.409Z,23.7
2019-01-13T06:56:51.827Z,23.7
2019-01-13T06:57:53.975Z,23.7
2019-01-13T06:58:56.401Z,23.7
2019-01-13T06:59:58.810Z,23.7
2019-01-13T07:01:00.965Z,23.7
2019-01-13T07:02:04.471Z,23.7
2019-01-13T07:03:06.625Z,23.7
2019-01-13T07:04:09.056Z,23.7
2019-01-13T07:05:11.303Z,23.7
2019-01-13T07:06:13.729Z,23.7
2019-01-13T07:07:16.145Z,23.7
2019-01-13T07:08:18.575Z,23.7
2019-01-13T07:09:21.005Z,23.7
2019-01-13T07:10:23.425Z,23.7
2019-01-13T07:11:25.571Z,23.7
2019-01-13T07:12:28.004Z,23.7
2019-01-13T07:13:30.435Z,23.7
2019-01-13T07:14:32.861Z,23.7
2019-01-13T07:15:35.008Z,23.7
2019-01-13T07:16:37.435Z,23.7
2019-01-13T07:17:39.565Z,23.7
2019-01-13T07:18:41.465Z,23.7
2019-01-13T07:19:43.894Z,23.7
2019-01-13T07:20:45.789Z,23.7
2019-01-13T07:21:48.215Z,23.7
2019-01-13T07:22:50.093Z,23.7
2019-01-13T07:23:52.525Z,23.7
2019-01-13T07:24:54.664Z,23.7
2019-01-13T07:25:56.824Z,23.7
2019-01-13T07:26:59.255Z,23.7
2019-01-13T07:28:01.404Z,23.7
2019-01-13T07:29:03.833Z,23.7
2019-01-13T07:30:06.255Z,23.7
2019-01-13T07:31:08.682Z,23.7
2019-01-13T07:32:11.880Z,23.7
2019-01-13T07:33:14.055Z,23.7
2019-01-13T07:34:16.477Z,23.7
2019-01-13T07:35:18.647Z,23.7
2019-01-13T07:36:21.095Z,23.7
2019-01-13T07:37:23.526Z,23.7
2019-01-13T07:38:25.701Z,23.7
2019-01-13T07:39:28.124Z,23.7
2019-01-13T07:40:30.618Z,23.7
2019-01-13T07:41:32.499Z,23.7
2019-01-13T07:42:34.653Z,23.7
2019-01-13T07:43:36.815Z,23.7
2019-01-13T07:44:39.256Z,23.7
2019-01-13T07:45:41.739Z,23.7
2019-01-13T07:46:43.888Z,23.7
2019-01-13T07:47:46.321Z,23.7
2019-01-13T07:48:48.471Z,23.7
2019-01-13T07:49:50.913Z,23.7
2019-01-13T07:50:53.351Z,23.7
2019-01-13T07:51:55.785Z,23.7
2019-01-13T07:52:57.938Z,23.7
2019-01-13T07:54:00.353Z,23.7
2019-01-13T07:55:02.779Z,23.7
2019-01-13T07:56:05.218Z,23.7
2019-01-13T07:57:07.369Z,23.7
2019-01-13T07:58:09.801Z,23.7
2019-01-13T07:59:12.269Z,23.7
2019-01-13T08:00:14.703Z,23.7
2019-01-13T08:01:17.139Z,23.7
2019-01-13T08:02:19.573Z,23.7
2019-01-13T08:03:21.997Z,23.7
2019-01-13T08:04:24.162Z,23.7
2019-01-13T08:05:26.606Z,23.7
2019-01-13T08:06:28.502Z,23.7
2019-01-13T08:07:30.381Z,23.7
2019-01-13T08:08:32.818Z,23.7
2019-01-13T08:09:35.259Z,23.7
2019-01-13T08:10:37.695Z,23.7
2019-01-13T08:11:39.572Z,23.7
2019-01-13T08:12:41.445Z,23.7
2019-01-13T08:13:43.605Z,23.7
2019-01-13T08:14:46.040Z,23.7
2019-01-13T08:15:48.475Z,23.7
2019-01-13T08:16:50.919Z,23.7
2019-01-13T08:17:53.345Z,23.7
2019-01-13T08:18:55.783Z,23.7
2019-01-13T08:19:57.927Z,23.7
2019-01-13T08:21:00.361Z,23.7
2019-01-13T08:22:02.788Z,23.7
2019-01-13T08:23:05.221Z,23.7
2019-01-13T08:24:07.410Z,23.7
2019-01-13T08:25:09.935Z,23.7
2019-01-13T08:26:12.121Z,23.7
2019-01-13T08:27:14.558Z,23.7
2019-01-13T08:28:16.698Z,23.7
2019-01-13T08:29:18.853Z,23.7
2019-01-13T08:30:21.017Z,23.7
2019-01-13T08:31:22.894Z,23.7
2019-01-13T08:32:26.127Z,23.7
2019-01-13T08:33:28.565Z,23.7
2019-01-13T08:34:31.001Z,23.7
2019-01-13T08:35:32.898Z,23.7
2019-01-13T08:36:35.322Z,23.7
2019-01-13T08:37:37.206Z,23.7
2019-01-13T08:38:39.648Z,23.7
2019-01-13T08:39:41.818Z,23.7
2019-01-13T08:40:43.941Z,23.7
2019-01-13T08:41:46.373Z,23.7
2019-01-13T08:42:48.535Z,23.7
2019-01-13T08:43:50.700Z,23.7
2019-01-13T08:44:53.134Z,23.7
2019-01-13T08:45:55.296Z,23.7
2019-01-13T08:46:57.735Z,23.7
2019-01-13T08:47:59.603Z,23.7
2019-01-13T08:49:02.055Z,23.7
2019-01-13T08:50:04.227Z,23.7
2019-01-13T08:51:06.652Z,23.7
2019-01-13T08:52:08.809Z,23.7
2019-01-13T08:53:11.244Z,23.7
2019-01-13T08:54:13.417Z,23.7
2019-01-13T08:55:15.543Z,23.7
2019-01-13T08:56:18.099Z,23.7
2019-01-13T08:57:20.516Z,23.7
2019-01-13T08:58:22.942Z,23.7
2019-01-13T08:59:25.101Z,23.7
2019-01-13T09:00:27.535Z,23.7
2019-01-13T09:01:29.968Z,23.7
2019-01-13T09:02:33.113Z,23.7
2019-01-13T09:03:35.272Z,23.7
2019-01-13T09:04:37.714Z,23.7
2019-01-13T09:05:39.873Z,23.7
2019-01-13T09:06:41.755Z,23.7
2019-01-13T09:07:44.201Z,23.7
2019-01-13T09:08:46.371Z,23.7
2019-01-13T09:09:48.794Z,23.7
2019-01-13T09:10:50.961Z,23.7
2019-01-13T09:11:53.102Z,23.7
2019-01-13T09:14:00.562Z,23.7
2019-01-13T09:15:03.026Z,23.7
2019-01-13T09:16:05.214Z,23.7
2019-01-13T09:17:07.638Z,23.7
2019-01-13T09:18:10.062Z,23.7
2019-01-13T09:19:12.494Z,23.7
2019-01-13T09:20:14.381Z,23.7
2019-01-13T09:21:18.531Z,23.7
2019-01-13T09:22:20.973Z,23.7
2019-01-13T09:23:23.411Z,23.7
2019-01-13T09:24:25.562Z,23.7
2019-01-13T09:25:27.737Z,23.7
2019-01-13T09:26:30.177Z,23.7
2019-01-13T09:27:32.344Z,23.7
2019-01-13T09:28:34.244Z,23.7
2019-01-13T09:30:41.384Z,23.7
2019-01-13T09:31:43.824Z,23.7
2019-01-13T09:32:46.256Z,23.7
2019-01-13T09:33:48.392Z,23.7
2019-01-13T09:34:50.274Z,23.7
2019-01-13T09:35:52.426Z,23.7
2019-01-13T09:36:54.866Z,23.7
2019-01-13T09:37:57.322Z,23.7
2019-01-13T09:38:59.474Z,23.7
2019-01-13T09:40:01.916Z,23.7
2019-01-13T09:41:03.793Z,23.7
2019-01-13T09:42:05.963Z,23.7
2019-01-13T09:43:08.133Z,23.7
2019-01-13T09:44:10.584Z,23.7
2019-01-13T09:45:12.748Z,23.7
2019-01-13T09:46:15.162Z,23.7
2019-01-13T09:47:17.615Z,23.7
2019-01-13T09:48:20.051Z,23.7
2019-01-13T09:49:23.786Z,23.7
2019-01-13T09:50:25.686Z,23.7
2019-01-13T09:51:28.119Z,23.7
2019-01-13T09:52:30.539Z,23.7
2019-01-13T09:53:32.702Z,23.7
2019-01-13T09:54:35.119Z,23.7
2019-01-13T09:55:37.550Z,23.7
2019-01-13T09:56:39.973Z,23.7
2019-01-13T09:57:42.408Z,23.7
2019-01-13T09:58:44.569Z,23.7
2019-01-13T09:59:46.737Z,23.7
2019-01-13T10:00:49.162Z,23.7
2019-01-13T10:01:51.332Z,23.7
2019-01-13T10:02:53.501Z,23.7
2019-01-13T10:03:55.954Z,23.7
2019-01-13T10:04:58.397Z,23.7
2019-01-13T10:06:00.836Z,23.7
2019-01-13T10:07:02.736Z,23.7
2019-01-13T10:08:04.899Z,23.7
2019-01-13T10:09:07.338Z,23.7
2019-01-13T10:10:09.814Z,23.7
2019-01-13T10:11:11.963Z,23.7
2019-01-13T10:12:14.424Z,23.7
2019-01-13T10:13:16.895Z,23.7
2019-01-13T10:14:19.339Z,23.7
2019-01-13T10:15:21.807Z,23.6
2019-01-13T10:16:24.266Z,23.6
2019-01-13T10:17:26.424Z,23.7
2019-01-13T10:18:28.593Z,23.7
2019-01-13T10:19:30.744Z,23.6
2019-01-13T10:20:32.894Z,23.6
2019-01-13T10:21:35.051Z,23.6
2019-01-13T10:22:37.497Z,23.6
2019-01-13T10:23:39.665Z,23.6
2019-01-13T10:24:41.529Z,23.6
2019-01-13T10:25:43.694Z,23.6
2019-01-13T10:26:45.834Z,23.6
2019-01-13T10:27:48.267Z,23.6
2019-01-13T10:28:50.694Z,23.6
2019-01-13T10:29:52.846Z,23.6
2019-01-13T10:30:55.281Z,23.6
2019-01-13T10:32:01.152Z,23.6
2019-01-13T10:33:03.580Z,23.6
2019-01-13T10:34:06.039Z,23.6
2019-01-13T10:35:08.475Z,23.6
2019-01-13T10:36:10.646Z,23.6
2019-01-13T10:37:12.805Z,23.6
2019-01-13T10:38:14.671Z,23.6
2019-01-13T10:39:16.834Z,23.6
2019-01-13T10:40:19.013Z,23.6
2019-01-13T10:41:21.561Z,23.6
2019-01-13T10:42:24.114Z,23.6
2019-01-13T10:43:26.540Z,23.6
2019-01-13T10:44:28.442Z,23.6
2019-01-13T10:45:30.873Z,23.6
2019-01-13T10:46:32.747Z,23.6
2019-01-13T10:47:34.599Z,23.6
2019-01-13T10:48:37.044Z,23.6
2019-01-13T10:49:39.292Z,23.6
2019-01-13T10:50:41.807Z,23.6
2019-01-13T10:51:43.986Z,23.5
2019-01-13T10:52:46.434Z,23.5
2019-01-13T10:53:48.594Z,23.5
2019-01-13T10:54:51.022Z,23.5
2019-01-13T10:55:53.459Z,23.5
2019-01-13T10:56:57.582Z,23.5
2019-01-13T10:57:59.736Z,23.5
2019-01-13T10:59:02.164Z,23.5
2019-01-13T11:00:04.322Z,23.5
2019-01-13T11:01:06.754Z,23.5
2019-01-13T11:02:09.182Z,23.5
2019-01-13T11:03:11.619Z,23.5
2019-01-13T11:04:13.503Z,23.5
2019-01-13T11:05:15.929Z,23.5
2019-01-13T11:06:18.078Z,23.5
2019-01-13T11:07:20.233Z,23.5
2019-01-13T11:08:22.374Z,23.5
2019-01-13T11:09:24.521Z,23.5
2019-01-13T11:10:26.419Z,23.5
2019-01-13T11:11:28.583Z,23.5
2019-01-13T11:12:31.033Z,23.5
2019-01-13T11:13:33.207Z,23.5
2019-01-13T11:14:35.643Z,23.5
2019-01-13T11:15:38.100Z,23.5
2019-01-13T11:16:40.304Z,23.5
2019-01-13T11:17:42.196Z,23.5
2019-01-13T11:18:44.622Z,23.5
2019-01-13T11:19:47.056Z,23.5
2019-01-13T11:20:49.217Z,23.5
2019-01-13T11:21:51.662Z,23.5
2019-01-13T11:22:54.160Z,23.6
2019-01-13T11:23:56.295Z,23.6
2019-01-13T11:24:58.726Z,23.5
2019-01-13T11:26:00.877Z,23.5
2019-01-13T11:27:03.303Z,23.5
2019-01-13T11:28:05.740Z,23.5
2019-01-13T11:29:08.182Z,23.6
2019-01-13T11:30:11.901Z,23.6
2019-01-13T11:31:14.116Z,23.6
2019-01-13T11:32:16.285Z,23.6
2019-01-13T11:33:18.748Z,23.6
2019-01-13T11:34:21.186Z,23.6
2019-01-13T11:35:23.339Z,23.6
2019-01-13T11:36:25.769Z,23.6
2019-01-13T11:37:28.210Z,23.6
2019-01-13T11:38:30.369Z,23.6
2019-01-13T11:39:32.525Z,23.6
2019-01-13T11:40:35.059Z,23.6
2019-01-13T11:41:37.495Z,23.6
2019-01-13T11:42:39.942Z,23.6
2019-01-13T11:43:42.366Z,23.6
2019-01-13T11:44:44.524Z,23.6
2019-01-13T11:45:46.938Z,23.6
2019-01-13T11:46:49.369Z,23.6
2019-01-13T11:47:51.535Z,23.6
2019-01-13T11:48:53.967Z,23.6
2019-01-13T11:49:56.446Z,23.6
2019-01-13T11:50:58.961Z,23.6
2019-01-13T11:52:01.125Z,23.6
2019-01-13T11:53:03.586Z,23.6
2019-01-13T11:54:05.729Z,23.5
2019-01-13T11:55:07.886Z,23.6
2019-01-13T11:56:10.048Z,23.6
2019-01-13T11:57:12.471Z,23.6
2019-01-13T11:58:16.827Z,23.6
2019-01-13T11:59:18.970Z,23.6
2019-01-13T12:00:21.411Z,23.6
2019-01-13T12:01:23.846Z,23.6
2019-01-13T12:03:31.253Z,23.6
2019-01-13T12:04:33.681Z,23.6
2019-01-13T12:05:36.113Z,23.6
2019-01-13T12:06:38.276Z,23.6
2019-01-13T12:07:40.714Z,23.6
2019-01-13T12:08:43.188Z,23.6
2019-01-13T12:09:45.333Z,23.6
2019-01-13T12:10:47.771Z,23.6
2019-01-13T12:11:50.203Z,23.6
2019-01-13T12:12:52.374Z,23.6
2019-01-13T12:13:54.276Z,23.6
2019-01-13T12:14:56.728Z,23.6
2019-01-13T12:15:59.165Z,23.6
2019-01-13T12:17:01.650Z,23.6
2019-01-13T12:18:04.104Z,23.6
2019-01-13T12:19:06.562Z,23.6
2019-01-13T12:20:08.999Z,23.6
2019-01-13T12:21:11.169Z,23.6
2019-01-13T12:22:13.357Z,23.6
2019-01-13T12:23:15.785Z,23.6
2019-01-13T12:24:18.227Z,23.6
2019-01-13T12:25:20.654Z,23.6
2019-01-13T12:26:22.547Z,23.6
2019-01-13T12:27:24.707Z,23.6
2019-01-13T12:28:26.853Z,23.6
2019-01-13T12:29:30.816Z,23.6
2019-01-13T12:30:33.327Z,23.6
2019-01-13T12:31:35.752Z,23.6
2019-01-13T12:32:38.196Z,23.6
2019-01-13T12:33:40.627Z,23.6
2019-01-13T12:34:43.069Z,23.6
2019-01-13T12:35:45.493Z,23.6
2019-01-13T12:36:47.931Z,23.6
2019-01-13T12:37:50.374Z,23.6
2019-01-13T12:38:52.834Z,23.6
2019-01-13T12:39:54.989Z,23.6
2019-01-13T12:40:57.439Z,23.6
2019-01-13T12:42:01.584Z,23.6
2019-01-13T12:43:04.012Z,23.6
2019-01-13T12:44:06.177Z,23.6
2019-01-13T12:45:08.106Z,23.6
2019-01-13T12:46:12.024Z,23.6
2019-01-13T12:47:14.473Z,23.6
2019-01-13T12:48:16.923Z,23.6
2019-01-13T12:49:18.794Z,23.7
2019-01-13T12:50:21.233Z,23.7
2019-01-13T12:51:23.675Z,23.8
2019-01-13T12:52:25.839Z,23.8
2019-01-13T12:53:28.284Z,23.8
2019-01-13T12:54:30.705Z,23.9
2019-01-13T12:55:32.847Z,23.9
2019-01-13T12:56:35.275Z,24
2019-01-13T12:57:37.436Z,24
2019-01-13T12:58:39.900Z,24
2019-01-13T12:59:42.059Z,24.1
2019-01-13T13:00:44.493Z,24.1
2019-01-13T13:01:46.637Z,24.1
2019-01-13T13:02:48.796Z,24.2
2019-01-13T13:03:51.248Z,24.2
2019-01-13T13:04:53.685Z,24.3
2019-01-13T13:05:56.125Z,24.3
2019-01-13T13:06:58.551Z,24.3
2019-01-13T13:08:00.985Z,24.3
2019-01-13T13:09:03.175Z,24.4
2019-01-13T13:10:05.340Z,24.4
2019-01-13T13:11:07.798Z,24.4
2019-01-13T13:12:09.929Z,24.4
2019-01-13T13:13:12.103Z,24.5
2019-01-13T13:14:14.535Z,24.5
2019-01-13T13:15:16.696Z,24.5
2019-01-13T13:16:19.158Z,24.5
2019-01-13T13:17:21.066Z,24.5
2019-01-13T13:18:23.229Z,24.6
2019-01-13T13:19:25.695Z,24.6
2019-01-13T13:20:28.143Z,24.6
2019-01-13T13:21:30.304Z,24.6
2019-01-13T13:22:32.485Z,24.6
2019-01-13T13:23:34.941Z,24.7
2019-01-13T13:24:37.398Z,24.7
2019-01-13T13:25:39.570Z,24.7
2019-01-13T13:26:41.994Z,24.7
2019-01-13T13:27:44.209Z,24.7
2019-01-13T13:28:46.363Z,24.8
2019-01-13T13:29:48.804Z,24.8
2019-01-13T13:30:51.245Z,24.8
2019-01-13T13:31:53.679Z,24.8
2019-01-13T13:32:56.265Z,24.8
2019-01-13T13:33:58.723Z,24.8
2019-01-13T13:35:01.200Z,24.9
2019-01-13T13:36:03.658Z,24.9
2019-01-13T13:37:06.097Z,24.9
2019-01-13T13:38:07.959Z,24.9
2019-01-13T13:39:10.405Z,24.9
2019-01-13T13:40:12.946Z,24.9
2019-01-13T13:41:15.442Z,24.9
2019-01-13T13:42:17.875Z,24.9
2019-01-13T13:43:20.330Z,24.9
2019-01-13T13:44:22.803Z,24.9
2019-01-13T13:45:25.239Z,24.9
2019-01-13T13:46:27.426Z,24.9
2019-01-13T13:47:29.890Z,24.9
2019-01-13T13:48:32.342Z,24.9
2019-01-13T13:49:34.789Z,24.9
2019-01-13T13:50:37.263Z,25
2019-01-13T13:51:39.720Z,25
2019-01-13T13:52:41.984Z,25
2019-01-13T13:53:44.445Z,25
2019-01-13T13:54:46.883Z,25
2019-01-13T13:55:49.332Z,25
2019-01-13T13:56:51.802Z,25
2019-01-13T13:57:54.268Z,25
2019-01-13T13:58:56.721Z,25
2019-01-13T13:59:58.897Z,25
2019-01-13T14:01:01.359Z,25
2019-01-13T14:02:03.804Z,25
2019-01-13T14:03:06.262Z,25